createdAt,value
2024-02-03T00:00:14.432Z,9.80
2024-02-03T00:02:41.106Z,9.80
2024-02-03T00:05:08.283Z,9.80
2024-02-03T00:07:35.208Z,9.80
2024-02-03T00:10:02.160Z,9.80
2024-02-03T00:12:29.822Z,9.70
2024-02-03T00:14:57.135Z,9.80
2024-02-03T00:17:24.643Z,9.70
2024-02-03T00:19:53.758Z,9.80
2024-02-03T00:22:20.931Z,9.80
2024-02-03T00:24:48.040Z,9.80
2024-02-03T00:27:14.913Z,9.80
2024-02-03T00:29:41.710Z,9.80
2024-02-03T00:32:08.498Z,9.90
2024-02-03T00:34:35.463Z,9.90
2024-02-03T00:37:02.845Z,9.80
2024-02-03T00:39:29.733Z,9.80
2024-02-03T00:41:56.482Z,9.80
2024-02-03T00:44:23.216Z,9.80
2024-02-03T00:46:49.937Z,9.70
2024-02-03T00:49:16.692Z,9.70
2024-02-03T00:51:43.477Z,9.70
2024-02-03T00:54:10.230Z,9.70
2024-02-03T00:56:37.119Z,9.80
2024-02-03T00:59:03.811Z,9.70
2024-02-03T01:01:30.583Z,9.70
2024-02-03T01:03:58.323Z,9.70
2024-02-03T01:06:25.055Z,9.70
2024-02-03T01:08:51.723Z,9.70
2024-02-03T01:11:18.464Z,9.70
2024-02-03T01:13:46.141Z,9.60
2024-02-03T01:16:13.126Z,9.60
2024-02-03T01:18:40.057Z,9.60
2024-02-03T01:21:08.165Z,9.50
2024-02-03T01:23:34.936Z,9.50
2024-02-03T01:26:01.620Z,9.50
2024-02-03T01:28:28.275Z,9.50
2024-02-03T01:30:55.156Z,9.50
2024-02-03T01:33:21.993Z,9.50
2024-02-03T01:35:48.778Z,9.50
2024-02-03T01:38:15.442Z,9.40
2024-02-03T01:40:42.130Z,9.40
2024-02-03T01:43:12.612Z,9.50
2024-02-03T01:45:39.437Z,9.50
2024-02-03T01:48:07.499Z,9.50
2024-02-03T01:50:34.356Z,9.50
2024-02-03T01:53:03.112Z,9.50
2024-02-03T01:55:32.043Z,9.50
2024-02-03T01:58:02.490Z,9.60
2024-02-03T02:00:30.228Z,9.50
2024-02-03T02:02:57.491Z,9.60
2024-02-03T02:05:25.616Z,9.60
2024-02-03T02:07:52.292Z,9.60
2024-02-03T02:10:22.208Z,9.60
2024-02-03T02:12:49.194Z,9.60
2024-02-03T02:15:16.123Z,9.60
2024-02-03T02:17:42.937Z,9.60
2024-02-03T02:20:13.268Z,9.60
2024-02-03T02:22:40.178Z,9.70
2024-02-03T02:25:07.234Z,9.70
2024-02-03T02:27:34.586Z,9.70
2024-02-03T02:30:01.372Z,9.70
2024-02-03T02:32:28.207Z,9.70
2024-02-03T02:34:55.054Z,9.70
2024-02-03T02:37:21.760Z,9.80
2024-02-03T02:39:48.681Z,9.80
2024-02-03T02:42:15.492Z,9.70
2024-02-03T02:44:42.245Z,9.80
2024-02-03T02:47:09.082Z,9.80
2024-02-03T02:49:35.908Z,9.80
2024-02-03T02:52:02.688Z,9.90
2024-02-03T02:54:29.387Z,9.90
2024-02-03T02:56:56.167Z,9.90
2024-02-03T02:59:22.995Z,9.90
2024-02-03T03:01:49.889Z,9.90
2024-02-03T03:04:16.814Z,9.90
2024-02-03T03:06:43.561Z,10.00
2024-02-03T03:09:10.354Z,10.00
2024-02-03T03:11:37.661Z,10.00
2024-02-03T03:14:07.117Z,10.00
2024-02-03T03:16:33.914Z,10.00
2024-02-03T03:19:00.742Z,10.00
2024-02-03T03:21:27.572Z,10.00
2024-02-03T03:23:55.049Z,10.00
2024-02-03T03:26:21.872Z,10.10
2024-02-03T03:28:48.513Z,10.10
2024-02-03T03:31:15.201Z,10.00
2024-02-03T03:33:42.030Z,10.10
2024-02-03T03:36:10.395Z,10.10
2024-02-03T03:38:43.630Z,10.10
2024-02-03T03:41:11.306Z,10.10
2024-02-03T03:43:38.638Z,10.10
2024-02-03T03:46:07.504Z,10.10
2024-02-03T03:48:34.310Z,10.00
2024-02-03T03:51:01.095Z,10.10
2024-02-03T03:53:27.765Z,10.10
2024-02-03T03:55:54.450Z,10.20
2024-02-03T03:58:21.271Z,10.20
2024-02-03T04:00:48.622Z,10.20
2024-02-03T04:03:15.382Z,10.20
2024-02-03T04:05:42.239Z,10.20
2024-02-03T04:08:09.147Z,10.20
2024-02-03T04:10:35.845Z,10.30
2024-02-03T04:13:02.545Z,10.20
2024-02-03T04:15:30.387Z,10.30
2024-02-03T04:17:58.455Z,10.30
2024-02-03T04:20:26.273Z,10.20
2024-02-03T04:22:53.021Z,10.30
2024-02-03T04:25:19.670Z,10.40
2024-02-03T04:27:46.419Z,10.40
2024-02-03T04:30:22.521Z,10.40
2024-02-03T04:32:51.834Z,10.40
2024-02-03T04:35:18.523Z,10.40
2024-02-03T04:37:45.374Z,10.40
2024-02-03T04:40:12.441Z,10.40
2024-02-03T04:42:39.524Z,10.40
2024-02-03T04:45:06.863Z,10.40
2024-02-03T04:47:33.706Z,10.40
2024-02-03T04:50:02.168Z,10.40
2024-02-03T04:52:29.430Z,10.40
2024-02-03T04:54:56.215Z,10.40
2024-02-03T04:57:23.114Z,10.40
2024-02-03T04:59:49.953Z,10.40
2024-02-03T05:02:16.637Z,10.40
2024-02-03T05:04:43.732Z,10.40
2024-02-03T05:07:10.501Z,10.40
2024-02-03T05:09:37.245Z,10.40
2024-02-03T05:12:04.169Z,10.40
2024-02-03T05:14:30.860Z,10.40
2024-02-03T05:16:57.554Z,10.40
2024-02-03T05:19:26.870Z,10.40
2024-02-03T05:21:53.773Z,10.40
2024-02-03T05:24:20.816Z,10.40
2024-02-03T05:26:47.507Z,10.40
2024-02-03T05:29:14.154Z,10.40
2024-02-03T05:31:40.847Z,10.40
2024-02-03T05:34:07.652Z,10.40
2024-02-03T05:36:34.524Z,10.40
2024-02-03T05:39:01.340Z,10.40
2024-02-03T05:41:28.010Z,10.30
2024-02-03T05:43:54.685Z,10.30
2024-02-03T05:46:21.353Z,10.40
2024-02-03T05:48:48.159Z,10.40
2024-02-03T05:51:15.501Z,10.30
2024-02-03T05:53:43.052Z,10.30
2024-02-03T05:56:09.771Z,10.30
2024-02-03T05:58:36.437Z,10.30
2024-02-03T06:01:03.321Z,10.30
2024-02-03T06:03:31.147Z,10.30
2024-02-03T06:06:13.251Z,10.40
2024-02-03T06:08:44.456Z,10.20
2024-02-03T06:11:11.141Z,10.20
2024-02-03T06:13:37.837Z,10.20
2024-02-03T06:16:04.892Z,10.20
2024-02-03T06:18:31.754Z,10.30
2024-02-03T06:20:58.511Z,10.30
2024-02-03T06:23:25.181Z,10.30
2024-02-03T06:25:51.855Z,10.30
2024-02-03T06:28:19.318Z,10.30
2024-02-03T06:30:46.102Z,10.30
2024-02-03T06:33:12.976Z,10.40
2024-02-03T06:35:42.200Z,10.30
2024-02-03T06:38:09.214Z,10.30
2024-02-03T06:40:35.956Z,10.20
2024-02-03T06:43:03.221Z,10.30
2024-02-03T06:45:29.906Z,10.30
2024-02-03T06:47:56.810Z,10.30
2024-02-03T06:50:23.666Z,10.30
2024-02-03T06:52:50.404Z,10.40
2024-02-03T06:55:17.254Z,10.40
2024-02-03T06:57:44.111Z,10.40
2024-02-03T07:00:11.692Z,10.40
2024-02-03T07:02:38.525Z,10.40
2024-02-03T07:05:05.923Z,10.40
2024-02-03T07:07:32.617Z,10.40
2024-02-03T07:10:02.054Z,10.40
2024-02-03T07:12:29.025Z,10.50
2024-02-03T07:14:55.787Z,10.40
2024-02-03T07:17:22.815Z,10.40
2024-02-03T07:19:49.614Z,10.40
2024-02-03T07:22:16.398Z,10.40
2024-02-03T07:24:43.147Z,10.40
2024-02-03T07:27:10.722Z,10.40
2024-02-03T07:29:37.647Z,10.40
2024-02-03T07:32:04.744Z,10.50
2024-02-03T07:34:31.750Z,10.40
2024-02-03T07:36:58.788Z,10.40
2024-02-03T07:39:25.691Z,10.40
2024-02-03T07:41:52.374Z,10.40
2024-02-03T07:44:19.004Z,10.40
2024-02-03T07:46:45.658Z,10.40
2024-02-03T07:49:12.376Z,10.50
2024-02-03T07:51:39.108Z,10.40
2024-02-03T07:54:05.903Z,10.40
2024-02-03T07:56:32.607Z,10.40
2024-02-03T07:58:59.253Z,10.50
2024-02-03T08:01:27.956Z,10.50
2024-02-03T08:03:54.854Z,10.40
2024-02-03T08:06:21.979Z,10.50
2024-02-03T08:08:48.633Z,10.40
2024-02-03T08:11:15.286Z,10.50
2024-02-03T08:13:41.927Z,10.50
2024-02-03T08:16:09.244Z,10.50
2024-02-03T08:18:36.045Z,10.50
2024-02-03T08:21:03.672Z,10.50
2024-02-03T08:23:30.322Z,10.50
2024-02-03T08:25:56.979Z,10.40
2024-02-03T08:28:23.645Z,10.40
2024-02-03T08:30:50.444Z,10.60
2024-02-03T08:33:17.385Z,10.50
2024-02-03T08:35:44.458Z,10.60
2024-02-03T08:38:11.327Z,10.50
2024-02-03T08:40:38.037Z,10.50
2024-02-03T08:43:05.489Z,10.60
2024-02-03T08:45:32.214Z,10.50
2024-02-03T08:47:58.967Z,10.60
2024-02-03T08:50:26.073Z,10.60
2024-02-03T08:52:52.744Z,10.60
2024-02-03T08:55:19.371Z,10.60
2024-02-03T08:57:46.076Z,10.60
2024-02-03T09:00:13.419Z,10.70
2024-02-03T09:02:40.128Z,10.70
2024-02-03T09:05:08.284Z,10.80
2024-02-03T09:07:36.238Z,10.80
2024-02-03T09:10:05.674Z,10.80
2024-02-03T09:12:32.423Z,10.80
2024-02-03T09:14:59.155Z,10.80
2024-02-03T09:17:25.861Z,10.90
2024-02-03T09:19:52.818Z,10.90
2024-02-03T09:22:19.604Z,10.90
2024-02-03T09:24:46.466Z,10.90
2024-02-03T09:27:13.305Z,11.00
2024-02-03T09:29:44.191Z,11.10
2024-02-03T09:32:10.934Z,10.90
2024-02-03T09:34:37.923Z,11.00
2024-02-03T09:39:38.456Z,10.90
2024-02-03T09:42:06.042Z,11.10
2024-02-03T09:44:32.860Z,11.10
2024-02-03T09:46:59.627Z,11.10
2024-02-03T09:49:26.395Z,11.20
2024-02-03T09:51:53.909Z,11.20
2024-02-03T09:54:21.503Z,11.10
2024-02-03T09:56:48.474Z,11.10
2024-02-03T09:59:15.893Z,11.00
2024-02-03T10:01:49.014Z,11.00
2024-02-03T10:04:16.369Z,11.00
2024-02-03T10:06:49.138Z,11.00
2024-02-03T10:09:25.400Z,11.10
2024-02-03T10:11:52.531Z,11.00
2024-02-03T10:14:19.671Z,11.00
2024-02-03T10:16:47.142Z,10.90
2024-02-03T10:19:13.883Z,11.00
2024-02-03T10:21:40.764Z,11.00
2024-02-03T10:24:07.624Z,11.00
2024-02-03T10:26:34.714Z,11.00
2024-02-03T10:29:01.623Z,11.00
2024-02-03T10:31:28.471Z,11.00
2024-02-03T10:33:58.511Z,11.00
2024-02-03T10:36:25.235Z,11.00
2024-02-03T10:38:51.948Z,11.10
2024-02-03T10:41:21.179Z,11.10
2024-02-03T10:43:52.713Z,11.10
2024-02-03T10:46:22.224Z,11.10
2024-02-03T10:48:51.252Z,11.20
2024-02-03T10:51:22.457Z,11.20
2024-02-03T10:54:05.429Z,11.20
2024-02-03T10:56:36.430Z,11.20
2024-02-03T10:59:06.782Z,11.20
2024-02-03T11:01:42.000Z,11.20
2024-02-03T11:04:08.782Z,11.10
2024-02-03T11:06:36.404Z,11.10
2024-02-03T11:09:30.660Z,11.10
2024-02-03T11:11:58.314Z,11.10
2024-02-03T11:14:28.179Z,11.10
2024-02-03T11:16:58.448Z,11.10
2024-02-03T11:19:28.214Z,11.00
2024-02-03T11:22:04.571Z,11.00
2024-02-03T11:24:32.070Z,11.10
2024-02-03T11:27:00.549Z,11.10
2024-02-03T11:29:28.342Z,11.20
2024-02-03T11:32:05.916Z,11.10
2024-02-03T11:34:35.743Z,11.20
2024-02-03T11:37:03.430Z,11.20
2024-02-03T11:39:38.068Z,11.10
2024-02-03T11:42:07.488Z,11.20
2024-02-03T11:44:52.509Z,11.20
2024-02-03T11:47:23.075Z,11.20
2024-02-03T11:49:51.896Z,11.20
2024-02-03T11:52:20.338Z,11.20
2024-02-03T11:54:49.492Z,11.30
2024-02-03T11:57:16.406Z,11.30
2024-02-03T11:59:43.146Z,11.40
2024-02-03T12:02:11.168Z,11.40
2024-02-03T12:04:37.880Z,11.50
2024-02-03T12:07:04.837Z,11.40
2024-02-03T12:09:31.645Z,11.50
2024-02-03T12:12:00.004Z,11.50
2024-02-03T12:14:29.894Z,11.50
2024-02-03T12:16:58.536Z,11.50
2024-02-03T12:19:26.171Z,11.50
2024-02-03T12:21:53.037Z,11.40
2024-02-03T12:24:19.946Z,11.50
2024-02-03T12:26:46.894Z,11.60
2024-02-03T12:29:13.923Z,11.60
2024-02-03T12:31:41.245Z,11.60
2024-02-03T12:34:08.271Z,11.60
2024-02-03T12:36:35.579Z,11.60
2024-02-03T12:39:03.420Z,11.70
2024-02-03T12:41:30.143Z,11.70
2024-02-03T12:43:58.230Z,11.70
2024-02-03T12:46:24.890Z,11.80
2024-02-03T12:48:52.523Z,11.80
2024-02-03T12:51:19.727Z,11.70
2024-02-03T12:53:46.687Z,11.80
2024-02-03T12:56:13.826Z,11.90
2024-02-03T12:58:40.513Z,11.80
2024-02-03T13:01:07.258Z,11.90
2024-02-03T13:03:34.197Z,11.90
2024-02-03T13:06:01.693Z,11.90
2024-02-03T13:08:28.566Z,11.90
2024-02-03T13:10:55.274Z,11.80
2024-02-03T13:13:22.210Z,11.80
2024-02-03T13:15:48.957Z,11.80
2024-02-03T13:18:15.640Z,11.80
2024-02-03T13:20:43.202Z,11.80
2024-02-03T13:23:09.938Z,11.80
2024-02-03T13:25:36.928Z,11.80
2024-02-03T13:28:04.660Z,11.80
2024-02-03T13:30:31.964Z,11.80
2024-02-03T13:32:58.744Z,11.80
2024-02-03T13:35:27.324Z,11.80
2024-02-03T13:37:54.011Z,11.80
2024-02-03T13:40:20.662Z,11.80
2024-02-03T13:42:52.552Z,11.70
2024-02-03T13:45:19.983Z,11.70
2024-02-03T13:47:51.372Z,11.70
2024-02-03T13:50:19.739Z,11.80
2024-02-03T13:52:47.041Z,11.70
2024-02-03T13:55:14.513Z,11.60
2024-02-03T13:57:41.357Z,11.60
2024-02-03T14:00:08.954Z,11.60
2024-02-03T14:02:38.533Z,11.60
2024-02-03T14:05:06.226Z,11.60
2024-02-03T14:07:33.590Z,11.60
2024-02-03T14:10:01.335Z,11.60
2024-02-03T14:12:28.527Z,11.60
2024-02-03T14:14:55.248Z,11.60
2024-02-03T14:17:21.975Z,11.60
2024-02-03T14:19:48.830Z,11.60
2024-02-03T14:22:15.824Z,11.60
2024-02-03T14:24:42.839Z,11.60
2024-02-03T14:27:10.153Z,11.50
2024-02-03T14:29:36.913Z,11.40
2024-02-03T14:32:04.863Z,11.30
2024-02-03T14:34:31.656Z,11.30
2024-02-03T14:36:58.527Z,11.10
2024-02-03T14:39:25.496Z,11.20
2024-02-03T14:41:52.822Z,11.10
2024-02-03T14:44:20.392Z,11.10
2024-02-03T14:46:47.710Z,11.10
2024-02-03T14:49:14.736Z,11.00
2024-02-03T14:51:41.820Z,10.90
2024-02-03T14:54:08.809Z,10.90
2024-02-03T14:56:35.493Z,11.00
2024-02-03T14:59:02.351Z,11.00
2024-02-03T15:01:29.179Z,11.00
2024-02-03T15:03:55.891Z,11.00
2024-02-03T15:06:22.610Z,11.00
2024-02-03T15:08:49.380Z,10.90
2024-02-03T15:11:16.118Z,10.90
2024-02-03T15:13:42.787Z,11.10
2024-02-03T15:16:09.424Z,11.10
2024-02-03T15:18:36.339Z,11.00
2024-02-03T15:21:03.191Z,11.10
2024-02-03T15:23:29.914Z,11.10
2024-02-03T15:25:57.081Z,11.10
2024-02-03T15:28:26.844Z,11.10
2024-02-03T15:30:55.639Z,11.10
2024-02-03T15:33:22.508Z,11.10
2024-02-03T15:35:49.356Z,11.10
2024-02-03T15:38:16.054Z,10.90
2024-02-03T15:40:42.708Z,10.90
2024-02-03T15:43:09.434Z,10.90
2024-02-03T15:45:36.729Z,10.90
2024-02-03T15:48:04.379Z,10.80
2024-02-03T15:50:33.862Z,10.80
2024-02-03T15:53:00.650Z,10.80
2024-02-03T15:55:29.541Z,10.80
2024-02-03T15:57:56.813Z,10.80
2024-02-03T16:00:24.071Z,10.70
2024-02-03T16:02:51.020Z,10.70
2024-02-03T16:05:17.734Z,10.60
2024-02-03T16:07:44.465Z,10.60
2024-02-03T16:10:13.830Z,10.50
2024-02-03T16:12:41.407Z,10.40
2024-02-03T16:15:09.569Z,10.40
2024-02-03T16:17:36.327Z,10.40
2024-02-03T16:20:05.844Z,10.40
2024-02-03T16:22:33.458Z,10.40
2024-02-03T16:25:00.926Z,10.30
2024-02-03T16:27:28.513Z,10.30
2024-02-03T16:29:55.563Z,10.30
2024-02-03T16:32:22.268Z,10.30
2024-02-03T16:34:49.236Z,10.20
2024-02-03T16:37:16.290Z,10.20
2024-02-03T16:39:43.058Z,10.20
2024-02-03T16:42:09.744Z,10.10
2024-02-03T16:44:36.377Z,10.20
2024-02-03T16:47:03.064Z,10.20
2024-02-03T16:49:29.807Z,10.10
2024-02-03T16:51:57.665Z,10.10
2024-02-03T16:54:24.441Z,10.00
2024-02-03T16:56:51.112Z,10.10
2024-02-03T16:59:17.776Z,10.00
2024-02-03T17:01:46.490Z,10.00
2024-02-03T17:04:19.264Z,10.00
2024-02-03T17:06:49.335Z,9.90
2024-02-03T17:09:19.944Z,9.90
2024-02-03T17:11:46.700Z,9.90
2024-02-03T17:14:14.967Z,9.80
2024-02-03T17:16:42.265Z,9.80
2024-02-03T17:19:09.988Z,9.80
2024-02-03T17:21:37.169Z,9.80
2024-02-03T17:24:04.344Z,9.80
2024-02-03T17:26:31.242Z,9.80
2024-02-03T17:28:57.988Z,9.70
2024-02-03T17:31:24.634Z,9.60
2024-02-03T17:33:51.513Z,9.70
2024-02-03T17:36:19.055Z,9.60
2024-02-03T17:38:45.812Z,9.60
2024-02-03T17:41:12.478Z,9.60
2024-02-03T17:43:39.183Z,9.50
2024-02-03T17:46:06.252Z,9.50
2024-02-03T17:48:33.203Z,9.50
2024-02-03T17:51:00.006Z,9.50
2024-02-03T17:53:26.650Z,9.50
2024-02-03T17:55:53.500Z,9.50
2024-02-03T17:58:20.130Z,9.50
2024-02-03T18:00:46.924Z,9.50
2024-02-03T18:03:13.820Z,9.40
2024-02-03T18:05:41.732Z,9.50
2024-02-03T18:08:09.326Z,9.50
2024-02-03T18:10:35.996Z,9.40
2024-02-03T18:13:02.854Z,9.40
2024-02-03T18:15:31.668Z,9.30
2024-02-03T18:17:58.371Z,9.40
2024-02-03T18:20:25.033Z,9.30
2024-02-03T18:22:51.688Z,9.20
2024-02-03T18:25:19.120Z,9.10
2024-02-03T18:27:45.962Z,9.10
2024-02-03T18:30:13.534Z,9.10
2024-02-03T18:32:41.430Z,9.10
2024-02-03T18:35:09.596Z,9.00
2024-02-03T18:37:39.503Z,9.00
2024-02-03T18:40:06.703Z,9.10
2024-02-03T18:42:33.402Z,9.10
2024-02-03T18:45:00.371Z,9.10
2024-02-03T18:47:27.458Z,9.10
2024-02-03T18:49:54.208Z,9.10
2024-02-03T18:52:20.942Z,9.10
2024-02-03T18:54:47.938Z,9.00
2024-02-03T18:57:14.616Z,9.00
2024-02-03T18:59:41.337Z,9.00
2024-02-03T19:02:08.034Z,9.00
2024-02-03T19:04:34.873Z,9.00
2024-02-03T19:07:01.584Z,9.00
2024-02-03T19:09:29.172Z,9.00
2024-02-03T19:11:55.907Z,9.00
2024-02-03T19:14:22.618Z,9.00
2024-02-03T19:16:49.277Z,9.00
2024-02-03T19:19:15.989Z,9.00
2024-02-03T19:21:42.810Z,9.00
2024-02-03T19:24:09.530Z,9.10
2024-02-03T19:26:36.296Z,9.00
2024-02-03T19:29:03.187Z,9.00
2024-02-03T19:31:31.545Z,9.00
2024-02-03T19:33:58.264Z,9.10
2024-02-03T19:36:25.067Z,9.00
2024-02-03T19:38:51.784Z,9.00
2024-02-03T19:41:18.455Z,9.10
2024-02-03T19:43:45.566Z,9.00
2024-02-03T19:46:12.607Z,9.00
2024-02-03T19:48:39.468Z,9.10
2024-02-03T19:51:06.961Z,9.10
2024-02-03T19:53:33.949Z,9.00
2024-02-03T19:56:00.695Z,9.00
2024-02-03T19:58:27.503Z,9.00
2024-02-03T20:00:54.542Z,9.00
2024-02-03T20:03:21.509Z,9.00
2024-02-03T20:05:48.200Z,9.00
2024-02-03T20:08:15.077Z,9.00
2024-02-03T20:10:41.965Z,8.90
2024-02-03T20:13:08.836Z,8.90
2024-02-03T20:15:35.551Z,9.00
2024-02-03T20:18:02.332Z,9.00
2024-02-03T20:20:29.336Z,9.10
2024-02-03T20:22:56.070Z,9.00
2024-02-03T20:25:22.956Z,9.00
2024-02-03T20:27:49.819Z,9.10
2024-02-03T20:30:16.638Z,9.00
2024-02-03T20:32:43.335Z,9.00
2024-02-03T20:35:10.538Z,9.00
2024-02-03T20:37:37.317Z,9.00
2024-02-03T20:40:04.480Z,8.90
2024-02-03T20:42:31.353Z,8.80
2024-02-03T20:44:58.172Z,8.90
2024-02-03T20:47:24.812Z,8.80
2024-02-03T20:49:51.698Z,8.80
2024-02-03T20:52:18.894Z,8.80
2024-02-03T20:54:45.755Z,8.80
2024-02-03T20:57:14.118Z,8.80
2024-02-03T20:59:40.894Z,8.80
2024-02-03T21:02:07.847Z,8.90
2024-02-03T21:04:34.825Z,8.90
2024-02-03T21:07:04.675Z,8.80
2024-02-03T21:09:31.836Z,8.80
2024-02-03T21:11:58.687Z,8.80
2024-02-03T21:14:25.431Z,8.70
2024-02-03T21:16:52.113Z,8.70
2024-02-03T21:19:18.946Z,8.70
2024-02-03T21:21:46.019Z,8.70
2024-02-03T21:24:13.036Z,8.70
2024-02-03T21:26:39.741Z,8.70
2024-02-03T21:29:06.506Z,8.70
2024-02-03T21:31:33.473Z,8.70
2024-02-03T21:34:00.360Z,8.60
2024-02-03T21:36:27.209Z,8.60
2024-02-03T21:38:53.928Z,8.60
2024-02-03T21:41:20.568Z,8.60
2024-02-03T21:43:47.412Z,8.60
2024-02-03T21:46:20.334Z,8.70
2024-02-03T21:48:49.357Z,8.60
2024-02-03T21:51:17.185Z,8.60
2024-02-03T21:53:46.543Z,8.60
2024-02-03T21:56:17.807Z,8.60
2024-02-03T21:58:45.561Z,8.60
2024-02-03T22:01:13.095Z,8.60
2024-02-03T22:03:40.489Z,8.60
2024-02-03T22:06:07.708Z,8.60
2024-02-03T22:08:34.614Z,8.50
2024-02-03T22:11:01.410Z,8.50
2024-02-03T22:13:28.117Z,8.50
2024-02-03T22:15:55.059Z,8.40
2024-02-03T22:18:22.332Z,8.40
2024-02-03T22:20:49.204Z,8.40
2024-02-03T22:23:15.855Z,8.30
2024-02-03T22:25:42.604Z,8.30
2024-02-03T22:28:09.476Z,8.30
2024-02-03T22:30:36.976Z,8.20
2024-02-03T22:33:04.998Z,8.20
2024-02-03T22:35:32.770Z,8.10
2024-02-03T22:37:59.840Z,8.10
2024-02-03T22:40:26.546Z,8.10
2024-02-03T22:42:53.367Z,8.10
2024-02-03T22:45:20.872Z,8.10
2024-02-03T22:47:48.998Z,8.00
2024-02-03T22:50:16.193Z,8.10
2024-02-03T22:52:42.923Z,8.00
2024-02-03T22:55:09.854Z,8.00
2024-02-03T22:57:36.848Z,8.00
2024-02-03T23:00:16.419Z,8.00
2024-02-03T23:02:43.630Z,7.90
2024-02-03T23:05:10.299Z,7.80
2024-02-03T23:07:37.017Z,7.80
2024-02-03T23:10:05.202Z,7.70
2024-02-03T23:12:32.196Z,7.80
2024-02-03T23:14:58.936Z,7.80
2024-02-03T23:17:25.817Z,7.80
2024-02-03T23:19:53.750Z,7.80
2024-02-03T23:22:20.937Z,7.80
2024-02-03T23:24:48.293Z,7.70
2024-02-03T23:27:15.584Z,7.70
2024-02-03T23:29:42.199Z,7.70
2024-02-03T23:32:08.920Z,7.70
2024-02-03T23:34:35.722Z,7.70
2024-02-03T23:37:02.612Z,7.60
2024-02-03T23:39:29.382Z,7.60
2024-02-03T23:41:56.107Z,7.60
2024-02-03T23:44:23.044Z,7.60
2024-02-03T23:46:49.696Z,7.60
2024-02-03T23:49:16.400Z,7.60
2024-02-03T23:51:43.150Z,7.60
2024-02-03T23:54:09.931Z,7.50
2024-02-03T23:56:37.197Z,7.40
2024-02-03T23:59:04.428Z,7.40
